Down Up Stop Top
)

AZZ544
Blowing Dust Advisory issued September 02 at 4:00PM MST until September 02 at 10:00PM MST by NWS
...
BLOWING DUST ADVISORY IN EFFECT FROM 4 PM THIS AFTERNOON TO 10 PM MST 
THIS EVENING...
 ...
EXCESSIVE HEAT WARNING REMAINS IN EFFECT FROM 10 AM SATURDAY TO 8 PM MST 
MONDAY...
 * WHAT...
Visibility between one quarter mile and one mile in blowing dust expected.
Blowing Dust Advisory
...
BLOWING DUST ADVISORY IN EFFECT FROM 4 PM THIS AFTERNOON TO 10 PM MST 
THIS EVENING...
 ...
EXCESSIVE HEAT WARNING REMAINS IN EFFECT FROM 10 AM SATURDAY TO 8 PM MST 
MONDAY...
 * WHAT...
Visibility between one quarter mile and one mile in blowing dust expected.
Excessive Heat Warning
****************
...BLOWING DUST ADVISORY IN EFFECT FROM 4 PM THIS AFTERNOON TO
10 PM MST THIS EVENING...
...EXCESSIVE HEAT WARNING REMAINS IN EFFECT FROM 10 AM SATURDAY
TO 8 PM MST MONDAY...
* WHAT...Visibility between one quarter mile and one mile in
blowing dust expected.
* WHERE...The Northwest Valley of the Phoenix Metro Area,
Buckeye/Avondale, Deer Valley, Central Phoenix, North
Phoenix/Glendale, Scottsdale/Paradise Valley, The East Valley
of the Phoenix Metro Area, South Mountain/Ahwatukee and
Southeast Valley/Queen Creek.
* WHEN...From 4 PM this afternoon to 10 PM MST this evening.
* IMPACTS...Hazardous driving conditions due to reduced
visibility. Freeways most likely to be affected include the 202
San Tan, 202 South Mountain, 101 Pima, 303, and I-10.
Be ready for a sudden drop in visibility. If you encounter
blowing dust or blowing sand on the roadway or see it
approaching, pull off the road as far as possible and put your
vehicle in park. Turn the lights all the way off and keep your
foot off the brake pedal.
Remember, pull aside, stay alive.

Record high temperature 118.9°F Record low temperature 26.4°F Record high gust 49.0 mph Record high average 30.2 mph Record daily rain 1.93 in. Record low windchill 23.9°F Record high barometer 30.437 in. Record low barometer 28.833 in.
Daily high pressure 29.511 in. Daily low pressure 29.413 in. Daily low windchill 79.6°F Daily high heat index 110.5°F Daily high gust speed 15.0 mph W Daily high average speed 9.3 mph NW
Cactus Wren, Phoenix, AZ 85051
LAST READING AT TIME: 12:40 PM DATE: September 02 2022, time of next update: 12:50 pm
Current Weathermostly clear Current Temperature 101.8°F (38.8°C) (Heat Index 108.9°F ), Apparent temp 107.5°F , Apparent temp solar 124.5 °F
Maximum Temperature (since midnight)101.8°F at: 12:39 PM Minimum Temperature (since midnight)79.6°F at: 6:36 AM
Average windspeed (ten minute)1.4 mph Wind Direction (ten minute)NNW (337°)
Heat Index 108.9°F Maximum Gust (last hour)8.0 mph at: 11:25 AM
Maximum Gust (since midnight)15.0 mph at: 12:52 AM Maximum 1 minute average (since midnight)9.3 mph at: 12:34 AM
Rainfall (last hour)0.00 in. (0.0 mm) Rainfall (since midnight)0.00 in. (0.0 mm) ---
Rainfall This month 0.00 in. (0.0 mm) Rainfall To date this year 3.68 in. (93.5 mm)
Maximum rain per minute (last hour)0.00 in/min Maximum rain per hour (last 6 hours)0.00 in/hour
Yesterdays rainfall 0.00 in DewPoint 68.2°F (Wet Bulb :78.9°F )
Humidity 34 %, Humidex 115.6°F Barometer corrected to msl29.460 in. (997.6 hPa)
Pressure change -0.02 in. (last hour) Trend (last hour)STEADY
Pressure change (last 12 hours)+0.09 in Pressure change (last 6 hours)-0.02 in
Current solar 916 W/mē Current UV4.6
Maximum solar (since midnight) 916 W/mē Maximum UV (since midnight)4.6
Current 04:09 hours of sunshine today, current sky: Overcast and gloomy
Sunshine hours for the year: 1696:36 hrs Sunshine hours for the month: 10:25 hrs
Current evapotranspiration 0.28 inches per day. Yesterday's reading 0.31
last update: %time% %date%, next update: %timeofnextupdate%


5 day forecast

High/Low Barometer

barometer

24 hour Graph

24 hour

48 hour Graph

48 hour

78 hour Graph

72 hour

Realtime Grahp1

realtime graph

Realtime Grahp2

realtime2

Yesterday Grahp1

Yesterday

Yesterday Grahp2

Yesterday2

Yesterday Grahp3

Yesterday3

Moon Details

moon detail

moondetail 2


Weather report/warning/Metars

Expires:202209022300;;119229
FPUS55 KPSR 021642
ZFPPSR

Zone Forecast Product for Southwest Arizona/Southeast California
National Weather Service Phoenix AZ
941 AM MST Fri Sep 2 2022

This is an automatically generated product that provides average
values for large geographical areas and may not be representative
of the exact location that you are interested in. For a more site
specific forecast, please visit weather.gov/phoenix and either
(1) Select a location from the dropdown menu above the map or 
(2) Click a location on the map. You can refine your selection by
clicking on the map displayed on the resulting page.


AZZ537-540-542>544-546-548-550-551-022300-
Northwest Valley-Buckeye/Avondale-Deer Valley-Central Phoenix-
North Phoenix/Glendale-Scottsdale/Paradise Valley-East Valley-
South Mountain/Ahwatukee-Southeast Valley/Queen Creek-
Including the cities of Circle City, Surprise, Wittmann, Beardsley, 
Sun City West, Avondale, Cashion, Goodyear, Liberty, Peoria, Phoenix, 
Paradise Valley, Mesa, Chandler, Tempe, Gilbert, Sun Lakes, 
and Queen Creek
941 AM MST Fri Sep 2 2022

...EXCESSIVE HEAT WARNING IN EFFECT FROM 10 AM SATURDAY TO 8 PM MST
MONDAY...

.TODAY...Sunny and hot. Highs 102 to 106. Southeast wind around 5 mph
in the morning becoming southwest 5 to 10 mph in the afternoon. 
.TONIGHT...Partly cloudy. A slight chance of showers and
thunderstorms in the evening. Windy. Lows 78 to 85. Northeast wind
15 to 25 mph in the evening becoming east around 5 mph after
midnight. Gusts up to 35 mph in the evening. Chance of rain
20 percent. 
.SATURDAY...Sunny and hot. Highs 104 to 109. East wind 5 to 15 mph. 
.SATURDAY NIGHT...Mostly clear. Lows 78 to 86. East wind 5 to 10 mph.
.SUNDAY...Sunny and hot. Highs 103 to 108. East wind 5 to 10 mph. 
.SUNDAY NIGHT...Clear. Lows 78 to 84. 
.LABOR DAY...Sunny and hot. Highs 104 to 110. 
.MONDAY NIGHT...Mostly clear. Lows 79 to 84. 
.TUESDAY...Sunny and hot. Highs 104 to 109. 
.TUESDAY NIGHT...Mostly clear. Lows 78 to 84. 
.WEDNESDAY...Sunny and hot. Highs 102 to 108. 
.WEDNESDAY NIGHT...Mostly clear. Lows 76 to 82. 
.THURSDAY...Mostly sunny. Highs 100 to 104. 

$$


Phoenix, Phoenix Sky Harbor International Airport, AZ, United States (KPHX) 33-26-03N 112-03-04W 336M
Sep 02, 2022 - 02:51 PM EDT / 2022.09.02 1851 UTC
Wind: Variable at 5 MPH (4 KT):0
Visibility: 10 mile(s):0
Sky conditions: mostly clear
Temperature: 98.1 F (36.7 C)
Heat index: 100.2 F (37.9 C):1
Dew Point: 64.0 F (17.8 C)
Relative Humidity: 32%
Pressure (altimeter): 29.83 in. Hg (1010 hPa)
ob: KPHX 021851Z VRB04KT 10SM FEW075 FEW250 37/18 A2983 RMK AO2 SLP078 T03670178
cycle: 19
SAN LUIS VALLEY REGIONAL, CO, United States (KALS) 37-26N 105-52W 2299M
Sep 02, 2022 - 02:52 PM EDT / 2022.09.02 1852 UTC
Visibility: 10 mile(s):0
Sky conditions: clear
Temperature: 79.0 F (26.1 C)
Dew Point: 45.0 F (7.2 C)
Relative Humidity: 30%
Pressure (altimeter): 30.36 in. Hg (1028 hPa)
ob: KALS 021852Z AUTO 10SM CLR 26/07 A3036 RMK AO2 SLP186 T02610072
cycle: 19
Davis-Monthan Air Force Base, AZ, United States (KDMA) 32-10N 110-53W
Sep 02, 2022 - 02:56 PM EDT / 2022.09.02 1856 UTC
Wind: from the E (080 degrees) at 10 MPH (9 KT):0
Visibility: 10 mile(s):0
Sky conditions: clear
Temperature: 92.5 F (33.6 C)
Dew Point: 59.9 F (15.5 C)
Relative Humidity: 33%
Pressure (altimeter): 29.92 in. Hg (1013 hPa)
ob: KDMA 021856Z AUTO 08009KT 10SM CLR 34/16 A2992 RMK AO2 SLP082 T03360155 
cycle: 19
FLAGSTAFF PULLIAM AIRPORT, AZ, United States (KFLG) 35-08N 111-40W 2134M
Sep 02, 2022 - 02:57 PM EDT / 2022.09.02 1857 UTC
Wind: Variable at 7 MPH (6 KT) gusting to 16 MPH (14 KT):0
Visibility: 10 mile(s):0
Sky conditions: clear
Temperature: 84.9 F (29.4 C)
Dew Point: 43.0 F (6.1 C)
Relative Humidity: 22%
Pressure (altimeter): 30.32 in. Hg (1026 hPa)
ob: KFLG 021857Z VRB06G14KT 10SM CLR 29/06 A3032 RMK AO2 SLP151 T02940061
cycle: 19
Mesa, Williams Gateway Airport, AZ, United States (KIWA) 33-19N 111-39W
Sep 02, 2022 - 02:55 PM EDT / 2022.09.02 1855 UTC
Wind: Calm:0
Visibility: 10 mile(s):0
Sky conditions: clear
Temperature: 95 F (35 C)
Heat index: 99.5 F (37.5 C):1
Dew Point: 68 F (20 C)
Relative Humidity: 41%
Pressure (altimeter): 29.87 in. Hg (1011 hPa)
ob: KIWA 021855Z 00000KT 10SM CLR 35/20 A2987 
cycle: 19
PHOENIX-DEER VALLEY MUN, AZ, United States (KDVT) 33-41N 112-04W 443M
Sep 02, 2022 - 02:53 PM EDT / 2022.09.02 1853 UTC
Wind: Variable at 6 MPH (5 KT):0
Visibility: 10 mile(s):0
Sky conditions: clear
Temperature: 97.0 F (36.1 C)
Heat index: 97.9 F (36.6 C):1
Dew Point: 62.1 F (16.7 C)
Relative Humidity: 31%
Pressure (altimeter): 29.86 in. Hg (1011 hPa)
ob: KDVT 021853Z VRB05KT 10SM CLR 36/17 A2986 RMK AO2 SLP083 T03610167
cycle: 19
Luke Air Force Base / Phoenix, AZ, United States (KLUF) 33-32N 112-23W 332M
Sep 02, 2022 - 02:56 PM EDT / 2022.09.02 1856 UTC
Wind: Calm:0
Visibility: 10 mile(s):0
Sky conditions: clear
Temperature: 98.8 F (37.1 C)
Heat index: 101.3 F (38.5 C):1
Dew Point: 64.6 F (18.1 C)
Relative Humidity: 32%
Pressure (altimeter): 29.83 in. Hg (1010 hPa)
ob: KLUF 021856Z AUTO 00000KT 10SM CLR 37/18 A2983 RMK AO2 SLP085 T03710181 
cycle: 19
SCOTTSDALE AIRPORT, AZ, United States (KSDL) 33-37N 111-55W 447M
Sep 02, 2022 - 02:53 PM EDT / 2022.09.02 1853 UTC
Wind: Variable at 6 MPH (5 KT):0
Visibility: 10 mile(s):0
Sky conditions: clear
Temperature: 98.1 F (36.7 C)
Heat index: 99.7 F (37.6 C):1
Dew Point: 63.0 F (17.2 C)
Relative Humidity: 31%
Pressure (altimeter): 29.87 in. Hg (1011 hPa)
ob: KSDL 021853Z VRB05KT 10SM CLR 37/17 A2987 RMK AO2 SLP086 T03670172
cycle: 19
Chandler, Chandler Municipal Airport, AZ, United States (KCHD) 33-16-09N 111-48-40W
Sep 02, 2022 - 01:47 PM EDT / 2022.09.02 1747 UTC
Wind: Calm:0
Visibility: 10 mile(s):0
Sky conditions: clear
Temperature: 95 F (35 C)
Heat index: 99.5 F (37.5 C):1
Dew Point: 68 F (20 C)
Relative Humidity: 41%
Pressure (altimeter): 29.87 in. Hg (1011 hPa)
ob: KCHD 021747Z 00000KT 10SM CLR 35/20 A2987 
cycle: 18
Goodyear Municipal, AZ, United States (KGYR) 33-25N 112-23W
Sep 02, 2022 - 02:47 PM EDT / 2022.09.02 1847 UTC
Wind: Variable at 5 MPH (4 KT):0
Visibility: 10 mile(s):0
Sky conditions: clear
Temperature: 98 F (37 C)
Heat index: 101.1 F (38.4 C):1
Dew Point: 66 F (19 C)
Relative Humidity: 34%
Pressure (altimeter): 29.84 in. Hg (1010 hPa)
ob: KGYR 021847Z VRB04KT 10SM SKC 37/19 A2984 
cycle: 19
Mesa / Falcon Field, AZ, United States (KFFZ) 33-28N 111-44W
Sep 02, 2022 - 02:54 PM EDT / 2022.09.02 1854 UTC
Visibility: 10 mile(s):0
Sky conditions: clear
Temperature: 96.1 F (35.6 C)
Heat index: 98.8 F (37.1 C):1
Dew Point: 64.9 F (18.3 C)
Relative Humidity: 36%
Pressure (altimeter): 29.86 in. Hg (1011 hPa)
ob: KFFZ 021854Z 10SM CLR 36/18 A2986 RMK AO2 SLP083 T03560183
cycle: 19
Glendale, Glendale Municipal Airport, AZ, United States (KGEU) 33-31-38N 112-17-43W
Sep 02, 2022 - 02:47 PM EDT / 2022.09.02 1847 UTC
Wind: from the SE (140 degrees) at 3 MPH (3 KT):0
Visibility: 10 mile(s):0
Sky conditions: mostly clear
Temperature: 98 F (37 C)
Heat index: 99.0 F (37.2 C):1
Dew Point: 62 F (17 C)
Relative Humidity: 30%
Pressure (altimeter): 29.83 in. Hg (1010 hPa)
ob: KGEU 021847Z 14003KT 10SM FEW100 37/17 A2983 
cycle: 19

Date: 9/2/2022
Sunrise at:
06:03 am

Sunset at:
06:54 pm

Moonrise at:
12:23 pm 09/2/22

Moonset at:
09:59 pm 09/1/22

First Quarter  September 3 2022
Full moon  September 10 2022
Last QuarterSeptember 17 2022
New moon September 25 2022
Moon age: 5 days,13 hours,34 minutes,31%
Hours of possible daylight today was 12:51:00